createdAt,value
2023-05-14T00:00:38.727Z,101001.13
2023-05-14T00:03:41.240Z,100992.63
2023-05-14T00:06:42.935Z,101001.28
2023-05-14T00:09:44.529Z,101005.59
2023-05-14T00:12:46.139Z,101000.75
2023-05-14T00:15:47.738Z,101001.34
2023-05-14T00:18:49.346Z,100999.16
2023-05-14T00:21:50.992Z,100994.31
2023-05-14T00:24:52.608Z,100980.75
2023-05-14T00:27:54.569Z,100984.16
2023-05-14T00:30:57.149Z,100978.31
2023-05-14T00:33:58.759Z,100970.81
2023-05-14T00:37:00.364Z,100972.94
2023-05-14T00:40:02.035Z,100965.84
2023-05-14T00:43:03.783Z,100971.84
2023-05-14T00:46:06.055Z,100965.84
2023-05-14T00:49:07.820Z,100954.53
2023-05-14T00:52:11.016Z,100956.22
2023-05-14T00:55:16.574Z,100939.09
2023-05-14T00:58:19.325Z,100952.06
2023-05-14T01:01:21.175Z,100950.00
2023-05-14T01:04:22.868Z,100946.66
2023-05-14T01:07:34.070Z,100948.78
2023-05-14T01:10:42.274Z,100945.69
2023-05-14T01:14:14.675Z,100944.44
2023-05-14T01:17:20.097Z,100934.38
2023-05-14T01:20:22.321Z,100938.13
2023-05-14T01:23:24.109Z,100946.50
2023-05-14T01:26:25.974Z,100943.28
2023-05-14T01:29:29.134Z,100941.59
2023-05-14T01:32:32.298Z,100937.66
2023-05-14T01:35:33.982Z,100932.34
2023-05-14T01:38:36.460Z,100913.00
2023-05-14T01:41:39.496Z,100924.59
2023-05-14T01:44:41.754Z,100910.94
2023-05-14T01:47:43.370Z,100922.06
2023-05-14T01:50:44.981Z,100913.44
2023-05-14T01:53:46.573Z,100901.97
2023-05-14T01:56:48.229Z,100916.06
2023-05-14T01:59:49.781Z,100911.41
2023-05-14T02:02:51.562Z,100906.94
2023-05-14T02:05:53.125Z,100912.41
2023-05-14T02:08:54.658Z,100915.88
2023-05-14T02:11:56.240Z,100909.94
2023-05-14T02:14:57.807Z,100908.03
2023-05-14T02:17:59.444Z,100913.50
2023-05-14T02:21:01.058Z,100910.13
2023-05-14T02:24:02.718Z,100881.41
2023-05-14T02:27:04.989Z,100903.03
2023-05-14T02:30:07.130Z,100900.97
2023-05-14T02:33:08.935Z,100896.81
2023-05-14T02:36:10.631Z,100892.72
2023-05-14T02:39:12.172Z,100887.59
2023-05-14T02:42:13.725Z,100886.88
2023-05-14T02:45:15.365Z,100894.00
2023-05-14T02:48:16.949Z,100879.09
2023-05-14T02:51:20.119Z,100877.97
2023-05-14T02:54:21.710Z,100889.25
2023-05-14T02:57:23.329Z,100892.16
2023-05-14T03:00:25.261Z,100896.63
2023-05-14T03:03:27.388Z,100890.78
2023-05-14T03:06:29.534Z,100897.97
2023-05-14T03:09:31.120Z,100897.00
2023-05-14T03:12:32.722Z,100890.31
2023-05-14T03:15:34.409Z,100893.84
2023-05-14T03:18:36.793Z,100906.22
2023-05-14T03:21:38.459Z,100893.97
2023-05-14T03:24:40.869Z,100897.19
2023-05-14T03:27:42.432Z,100894.69
2023-05-14T03:30:44.162Z,100890.78
2023-05-14T03:33:45.906Z,100890.94
2023-05-14T03:36:47.524Z,100894.34
2023-05-14T03:39:49.114Z,100887.22
2023-05-14T03:42:50.908Z,100891.69
2023-05-14T03:45:52.800Z,100892.69
2023-05-14T03:48:54.540Z,100885.28
2023-05-14T03:51:57.382Z,100881.00
2023-05-14T03:54:58.915Z,100871.59
2023-05-14T03:58:00.609Z,100886.91
2023-05-14T04:01:02.145Z,100884.41
2023-05-14T04:04:03.897Z,100872.69
2023-05-14T04:07:05.597Z,100870.31
2023-05-14T04:10:07.714Z,100874.94
2023-05-14T04:13:09.447Z,100880.53
2023-05-14T04:16:13.325Z,100863.94
2023-05-14T04:19:15.015Z,100871.22
2023-05-14T04:22:16.718Z,100876.22
2023-05-14T04:25:18.591Z,100865.78
2023-05-14T04:28:20.159Z,100879.56
2023-05-14T04:31:22.097Z,100880.41
2023-05-14T04:34:23.695Z,100875.50
2023-05-14T04:37:26.098Z,100871.09
2023-05-14T04:40:27.758Z,100867.31
2023-05-14T04:43:29.310Z,100870.44
2023-05-14T04:46:31.139Z,100871.97
2023-05-14T04:49:33.447Z,100870.69
2023-05-14T04:52:35.506Z,100865.41
2023-05-14T04:55:37.365Z,100864.03
2023-05-14T04:58:38.962Z,100868.88
2023-05-14T05:01:40.634Z,100856.31
2023-05-14T05:04:42.251Z,100862.75
2023-05-14T05:07:43.829Z,100873.22
2023-05-14T05:10:45.399Z,100866.53
2023-05-14T05:13:46.974Z,100873.72
2023-05-14T05:16:48.603Z,100865.53
2023-05-14T05:19:50.380Z,100859.84
2023-05-14T05:22:51.958Z,100862.03
2023-05-14T05:25:53.579Z,100853.63
2023-05-14T05:28:55.223Z,100859.56
2023-05-14T05:31:56.830Z,100862.34
2023-05-14T05:34:58.503Z,100862.91
2023-05-14T05:38:01.605Z,100863.91
2023-05-14T05:41:03.467Z,100854.31
2023-05-14T05:44:05.184Z,100857.09
2023-05-14T05:47:06.833Z,100872.28
2023-05-14T05:50:09.797Z,100870.56
2023-05-14T05:53:11.474Z,100868.81
2023-05-14T05:56:13.049Z,100869.53
2023-05-14T05:59:14.742Z,100868.00
2023-05-14T06:02:16.336Z,100857.97
2023-05-14T06:05:18.898Z,100863.00
2023-05-14T06:08:20.541Z,100869.97
2023-05-14T06:11:22.342Z,100871.25
2023-05-14T06:14:23.927Z,100859.38
2023-05-14T06:17:25.713Z,100868.84
2023-05-14T06:20:27.343Z,100871.91
2023-05-14T06:23:29.775Z,100873.72
2023-05-14T06:26:31.334Z,100870.41
2023-05-14T06:29:32.920Z,100864.69
2023-05-14T06:32:34.544Z,100867.47
2023-05-14T06:35:37.107Z,100870.16
2023-05-14T06:38:38.695Z,100864.84
2023-05-14T06:41:40.323Z,100858.63
2023-05-14T06:44:42.472Z,100855.59
2023-05-14T06:47:44.170Z,100852.78
2023-05-14T06:50:49.167Z,100844.91
2023-05-14T06:53:52.337Z,100844.66
2023-05-14T06:56:54.293Z,100846.19
2023-05-14T06:59:55.838Z,100824.59
2023-05-14T07:02:57.431Z,100830.03
2023-05-14T07:05:58.981Z,100833.94
2023-05-14T07:09:01.671Z,100823.91
2023-05-14T07:12:03.364Z,100819.44
2023-05-14T07:15:05.660Z,100818.22
2023-05-14T07:18:07.286Z,100809.16
2023-05-14T07:21:09.115Z,100812.50
2023-05-14T07:24:10.705Z,100802.31
2023-05-14T07:27:12.561Z,100803.28
2023-05-14T07:30:14.721Z,100804.34
2023-05-14T07:33:16.427Z,100807.66
2023-05-14T07:36:18.025Z,100806.25
2023-05-14T07:39:19.723Z,100797.31
2023-05-14T07:42:34.578Z,100805.09
2023-05-14T07:45:39.038Z,100806.88
2023-05-14T07:48:40.665Z,100803.06
2023-05-14T07:51:42.367Z,100793.25
2023-05-14T07:54:43.931Z,100788.25
2023-05-14T07:57:46.106Z,100786.31
2023-05-14T08:00:47.679Z,100771.81
2023-05-14T08:03:49.604Z,100768.56
2023-05-14T08:06:51.731Z,100771.75
2023-05-14T08:09:53.298Z,100773.53
2023-05-14T08:12:54.933Z,100755.38
2023-05-14T08:15:56.605Z,100761.56
2023-05-14T08:18:58.188Z,100759.47
2023-05-14T08:21:59.791Z,100743.97
2023-05-14T08:25:03.483Z,100747.81
2023-05-14T08:28:05.464Z,100742.97
2023-05-14T08:31:07.082Z,100752.38
2023-05-14T08:34:08.658Z,100754.38
2023-05-14T08:37:10.254Z,100736.13
2023-05-14T08:40:12.545Z,100736.25
2023-05-14T08:43:19.745Z,100732.06
2023-05-14T08:46:24.130Z,100721.53
2023-05-14T08:49:37.456Z,100724.72
2023-05-14T08:52:39.733Z,100733.81
2023-05-14T08:55:42.538Z,100722.25
2023-05-14T08:58:44.120Z,100734.19
2023-05-14T09:01:51.741Z,100732.31
2023-05-14T09:04:57.131Z,100743.97
2023-05-14T09:07:59.394Z,100737.38
2023-05-14T09:11:00.945Z,100723.41
2023-05-14T09:14:02.584Z,100706.81
2023-05-14T09:17:04.303Z,100715.91
2023-05-14T09:20:07.154Z,100707.75
2023-05-14T09:23:08.780Z,100699.72
2023-05-14T09:26:10.867Z,100687.88
2023-05-14T09:29:12.434Z,100697.47
2023-05-14T09:32:14.083Z,100695.09
2023-05-14T09:35:20.221Z,100697.69
2023-05-14T09:38:24.178Z,100690.19
2023-05-14T09:41:25.875Z,100689.53
2023-05-14T09:44:27.805Z,100685.91
2023-05-14T09:47:29.368Z,100673.25
2023-05-14T09:50:31.210Z,100670.06
2023-05-14T09:53:34.291Z,100670.28
2023-05-14T09:56:37.098Z,100657.38
2023-05-14T09:59:38.679Z,100642.66
2023-05-14T10:02:42.809Z,100624.72
2023-05-14T10:05:45.126Z,100618.28
2023-05-14T10:08:49.119Z,100628.88
2023-05-14T10:11:54.263Z,100613.59
2023-05-14T10:15:01.338Z,100578.34
2023-05-14T10:18:08.091Z,100571.31
2023-05-14T10:21:11.381Z,100589.56
2023-05-14T10:24:13.293Z,100621.84
2023-05-14T10:27:15.285Z,100611.69
2023-05-14T10:30:16.860Z,100608.81
2023-05-14T10:33:18.901Z,100603.72
2023-05-14T10:36:20.833Z,100612.59
2023-05-14T10:39:22.431Z,100617.16
2023-05-14T10:42:28.982Z,100615.34
2023-05-14T10:45:30.805Z,100606.84
2023-05-14T10:48:33.313Z,100591.59
2023-05-14T10:51:36.677Z,100599.50
2023-05-14T10:54:38.876Z,100581.16
2023-05-14T10:57:42.814Z,100586.19
2023-05-14T11:00:48.219Z,100580.97
2023-05-14T11:03:53.334Z,100580.69
2023-05-14T11:06:56.655Z,100580.16
2023-05-14T11:10:02.953Z,100578.91
2023-05-14T11:13:04.666Z,100572.72
2023-05-14T11:19:11.449Z,100570.09
2023-05-14T11:22:14.516Z,100577.75
2023-05-14T11:25:17.008Z,100567.22
2023-05-14T11:28:26.609Z,100565.72
2023-05-14T11:31:28.211Z,100555.78
2023-05-14T11:34:29.850Z,100565.47
2023-05-14T11:37:31.466Z,100542.16
2023-05-14T11:40:33.030Z,100553.28
2023-05-14T11:43:36.543Z,100551.53
2023-05-14T11:46:38.153Z,100551.91
2023-05-14T11:49:39.854Z,100542.69
2023-05-14T11:52:41.773Z,100533.56
2023-05-14T11:55:43.545Z,100523.38
2023-05-14T11:58:48.998Z,100528.88
2023-05-14T12:01:52.343Z,100523.38
2023-05-14T12:04:54.145Z,100524.19
2023-05-14T12:07:56.262Z,100526.44
2023-05-14T12:11:01.558Z,100516.97
2023-05-14T12:14:12.257Z,100520.28
2023-05-14T12:17:23.239Z,100521.53
2023-05-14T12:20:26.340Z,100531.81
2023-05-14T12:23:29.682Z,100524.19
2023-05-14T12:26:34.319Z,100517.25
2023-05-14T12:29:37.994Z,100515.03
2023-05-14T12:32:41.249Z,100497.63
2023-05-14T12:35:43.118Z,100494.81
2023-05-14T12:38:44.729Z,100488.22
2023-05-14T12:41:46.510Z,100491.56
2023-05-14T12:44:48.226Z,100485.44
2023-05-14T12:47:49.863Z,100465.03
2023-05-14T12:50:51.849Z,100476.47
2023-05-14T12:53:54.292Z,100468.91
2023-05-14T12:56:55.967Z,100455.38
2023-05-14T12:59:57.636Z,100456.88
2023-05-14T13:02:59.269Z,100449.03
2023-05-14T13:06:01.415Z,100436.56
2023-05-14T13:09:03.371Z,100455.03
2023-05-14T13:12:05.387Z,100458.31
2023-05-14T13:15:07.541Z,100444.03
2023-05-14T13:18:09.191Z,100457.19
2023-05-14T13:21:10.899Z,100449.41
2023-05-14T13:24:12.479Z,100455.09
2023-05-14T13:27:14.086Z,100438.81
2023-05-14T13:30:16.205Z,100428.53
2023-05-14T13:33:17.737Z,100433.34
2023-05-14T13:36:19.413Z,100413.84
2023-05-14T13:39:22.756Z,100413.34
2023-05-14T13:42:24.382Z,100402.03
2023-05-14T13:45:26.142Z,100384.41
2023-05-14T13:48:28.154Z,100390.13
2023-05-14T13:51:29.765Z,100391.34
2023-05-14T13:54:31.342Z,100395.72
2023-05-14T13:57:32.924Z,100369.88
2023-05-14T14:00:34.476Z,100377.91
2023-05-14T14:03:36.051Z,100377.28
2023-05-14T14:06:37.622Z,100357.25
2023-05-14T14:09:39.168Z,100361.72
2023-05-14T14:12:40.963Z,100370.25
2023-05-14T14:15:43.549Z,100364.69
2023-05-14T14:18:45.282Z,100370.00
2023-05-14T14:21:46.956Z,100366.88
2023-05-14T14:24:48.533Z,100367.13
2023-05-14T14:27:51.000Z,100360.59
2023-05-14T14:30:52.711Z,100361.44
2023-05-14T14:33:54.259Z,100366.44
2023-05-14T14:36:55.834Z,100360.31
2023-05-14T14:39:57.439Z,100350.84
2023-05-14T14:42:59.010Z,100356.34
2023-05-14T14:46:00.684Z,100332.50
2023-05-14T14:49:02.281Z,100347.16
2023-05-14T14:52:04.037Z,100341.25
2023-05-14T14:55:06.287Z,100340.47
2023-05-14T14:58:08.221Z,100344.66
2023-05-14T15:01:09.886Z,100335.47
2023-05-14T15:04:11.644Z,100322.25
2023-05-14T15:07:13.737Z,100336.09
2023-05-14T15:10:15.477Z,100335.66
2023-05-14T15:13:17.650Z,100334.97
2023-05-14T15:16:19.301Z,100319.00
2023-05-14T15:19:20.916Z,100321.22
2023-05-14T15:22:22.511Z,100324.06
2023-05-14T15:25:24.761Z,100315.81
2023-05-14T15:28:26.709Z,100297.06
2023-05-14T15:31:28.392Z,100302.50
2023-05-14T15:34:30.021Z,100282.91
2023-05-14T15:37:49.465Z,100270.75
2023-05-14T15:40:51.279Z,100257.25
2023-05-14T15:43:52.822Z,100278.63
2023-05-14T15:46:54.444Z,100275.03
2023-05-14T15:49:56.110Z,100264.56
2023-05-14T15:52:57.734Z,100249.94
2023-05-14T15:55:59.310Z,100252.22
2023-05-14T15:59:00.888Z,100255.69
2023-05-14T16:02:02.552Z,100264.63
2023-05-14T16:05:04.396Z,100257.16
2023-05-14T16:08:06.278Z,100262.03
2023-05-14T16:11:07.956Z,100258.50
2023-05-14T16:14:09.626Z,100250.19
2023-05-14T16:17:11.525Z,100252.91
2023-05-14T16:20:13.145Z,100251.88
2023-05-14T16:23:14.774Z,100244.59
2023-05-14T16:26:16.432Z,100244.88
2023-05-14T16:29:18.274Z,100242.38
2023-05-14T16:32:20.116Z,100223.03
2023-05-14T16:35:23.006Z,100209.56
2023-05-14T16:38:24.688Z,100212.97
2023-05-14T16:41:26.234Z,100219.94
2023-05-14T16:44:27.810Z,100210.84
2023-05-14T16:47:29.454Z,100217.88
2023-05-14T16:50:31.048Z,100213.94
2023-05-14T16:53:32.635Z,100205.25
2023-05-14T16:56:34.240Z,100220.63
2023-05-14T16:59:36.189Z,100222.44
2023-05-14T17:02:38.071Z,100202.31
2023-05-14T17:05:39.672Z,100226.41
2023-05-14T17:08:41.759Z,100208.66
2023-05-14T17:11:43.422Z,100193.63
2023-05-14T17:14:45.111Z,100189.16
2023-05-14T17:17:47.359Z,100176.91
2023-05-14T17:20:48.925Z,100181.09
2023-05-14T17:23:51.663Z,100171.16
2023-05-14T17:26:53.317Z,100179.78
2023-05-14T17:29:55.062Z,100176.13
2023-05-14T17:32:56.731Z,100172.78
2023-05-14T17:35:58.675Z,100181.78
2023-05-14T17:39:00.353Z,100182.94
2023-05-14T17:42:03.619Z,100175.94
2023-05-14T17:45:06.011Z,100155.09
2023-05-14T17:48:07.835Z,100163.06
2023-05-14T17:51:09.598Z,100147.00
2023-05-14T17:54:11.160Z,100148.19
2023-05-14T17:57:12.734Z,100143.91
2023-05-14T18:00:14.587Z,100130.63
2023-05-14T18:03:16.235Z,100137.44
2023-05-14T18:06:17.932Z,100107.44
2023-05-14T18:09:19.535Z,100132.00
2023-05-14T18:12:21.126Z,100144.41
2023-05-14T18:15:25.432Z,100143.91
2023-05-14T18:18:27.593Z,100138.44
2023-05-14T18:21:29.189Z,100129.28
2023-05-14T18:24:30.780Z,100137.09
2023-05-14T18:27:32.438Z,100131.81
2023-05-14T18:30:34.085Z,100146.38
2023-05-14T18:33:35.691Z,100144.72
2023-05-14T18:36:37.672Z,100133.59
2023-05-14T18:39:39.519Z,100160.28
2023-05-14T18:42:41.354Z,100142.25
2023-05-14T18:45:43.384Z,100143.72
2023-05-14T18:48:44.933Z,100146.06
2023-05-14T18:51:46.747Z,100130.66
2023-05-14T18:54:48.335Z,100136.78
2023-05-14T18:57:50.196Z,100139.44
2023-05-14T19:00:52.542Z,100144.72
2023-05-14T19:03:54.217Z,100136.59
2023-05-14T19:06:56.136Z,100115.56
2023-05-14T19:09:57.700Z,100119.22
2023-05-14T19:12:59.331Z,100115.59
2023-05-14T19:16:01.080Z,100123.00
2023-05-14T19:19:03.181Z,100128.94
2023-05-14T19:22:05.245Z,100142.22
2023-05-14T19:25:08.127Z,100121.84
2023-05-14T19:28:10.127Z,100126.97
2023-05-14T19:31:11.756Z,100132.94
2023-05-14T19:34:13.343Z,100144.41
2023-05-14T19:37:14.928Z,100153.00
2023-05-14T19:40:16.658Z,100142.25
2023-05-14T19:43:18.210Z,100131.84
2023-05-14T19:46:19.815Z,100126.09
2023-05-14T19:49:21.387Z,100131.41
2023-05-14T19:52:22.961Z,100131.06
2023-05-14T19:55:24.920Z,100144.16
2023-05-14T19:58:26.816Z,100138.69
2023-05-14T20:01:28.958Z,100145.31
2023-05-14T20:04:30.792Z,100149.75
2023-05-14T20:07:33.438Z,100155.72
2023-05-14T20:10:35.054Z,100167.28
2023-05-14T20:13:36.798Z,100185.03
2023-05-14T20:16:38.489Z,100163.53
2023-05-14T20:19:40.121Z,100129.25
2023-05-14T20:22:42.850Z,100133.25
2023-05-14T20:25:44.899Z,100111.38
2023-05-14T20:28:46.473Z,100097.97
2023-05-14T20:31:48.039Z,100097.47
2023-05-14T20:34:49.615Z,100082.88
2023-05-14T20:37:51.211Z,100073.28
2023-05-14T20:40:52.793Z,100058.72
2023-05-14T20:43:54.366Z,100059.56
2023-05-14T20:46:55.987Z,100048.94
2023-05-14T20:49:57.562Z,100049.75
2023-05-14T20:52:59.079Z,100038.81
2023-05-14T20:56:01.358Z,100036.84
2023-05-14T20:59:02.952Z,100022.94
2023-05-14T21:02:04.791Z,100020.28
2023-05-14T21:05:06.982Z,100016.00
2023-05-14T21:08:08.651Z,100013.34
2023-05-14T21:11:10.244Z,100008.41
2023-05-14T21:14:11.779Z,99988.19
2023-05-14T21:17:13.324Z,99987.19
2023-05-14T21:20:15.699Z,99993.81
2023-05-14T21:23:19.479Z,100010.38
2023-05-14T21:26:24.406Z,99987.69
2023-05-14T21:29:25.998Z,99987.53
2023-05-14T21:32:27.760Z,99983.22
2023-05-14T21:35:29.371Z,99969.16
2023-05-14T21:38:32.475Z,99997.09
2023-05-14T21:41:34.066Z,100000.75
2023-05-14T21:44:35.737Z,99998.78
2023-05-14T21:47:37.923Z,99995.63
2023-05-14T21:50:39.567Z,99997.78
2023-05-14T21:53:41.278Z,99996.63
2023-05-14T21:56:42.841Z,100021.31
2023-05-14T21:59:44.407Z,100010.03
2023-05-14T22:02:46.146Z,100018.66
2023-05-14T22:05:49.223Z,99993.00
2023-05-14T22:08:50.801Z,100018.00
2023-05-14T22:11:52.435Z,100022.81
2023-05-14T22:14:53.970Z,100022.28
2023-05-14T22:17:55.831Z,100018.31
2023-05-14T22:20:57.421Z,100012.34
2023-05-14T22:23:58.990Z,100011.38
2023-05-14T22:27:00.587Z,99998.59
2023-05-14T22:30:02.256Z,100007.38
2023-05-14T22:33:03.900Z,100010.03
2023-05-14T22:36:07.015Z,100010.88
2023-05-14T22:39:09.314Z,100019.13
2023-05-14T22:42:11.801Z,100019.31
2023-05-14T22:45:13.424Z,100008.06
2023-05-14T22:48:15.239Z,100010.69
2023-05-14T22:51:16.936Z,99998.78
2023-05-14T22:54:18.586Z,100000.59
2023-05-14T22:57:20.401Z,99986.53
2023-05-14T23:00:22.010Z,99977.91
2023-05-14T23:03:23.650Z,99971.47
2023-05-14T23:06:25.380Z,99974.81
2023-05-14T23:09:26.931Z,99971.97
2023-05-14T23:12:28.490Z,99968.50
2023-05-14T23:15:30.257Z,99971.34
2023-05-14T23:18:32.222Z,99961.53
2023-05-14T23:21:33.865Z,99964.03
2023-05-14T23:24:35.554Z,99951.97
2023-05-14T23:27:37.200Z,99962.03
2023-05-14T23:30:38.782Z,99953.44
2023-05-14T23:33:40.350Z,99942.03
2023-05-14T23:36:42.666Z,99930.91
2023-05-14T23:39:44.303Z,99936.22
2023-05-14T23:42:46.442Z,99930.44
2023-05-14T23:45:48.082Z,99920.84
2023-05-14T23:48:51.929Z,99923.00
2023-05-14T23:51:53.526Z,99911.91
2023-05-14T23:54:55.066Z,99932.09
2023-05-14T23:57:56.804Z,99929.78
